Lake City, Kansas
Current Conditions -  °F | °C
As of 7:55 PM on Sunday 21 Dec 2014 (Local Time) from KPTT Reporting Station
Haze Haze  
Wind Chill: 36°   Ceiling: 600
Heat Index: 43°   Visibility: 5mi
Dew Point: 41°   Wind: 13mph
Humidity: 93%   Direction: 170°S
Pressure: 29.65"   Gusts: NA
Location:  37.36°N, 98.82°W
Report Text: KPTT 220155Z AUTO 17011KT 5SM BR OVC006 06/05 A2965 RMK AO2
Loading
Personal Weather Stations






























Interactive Weather Map New forecast layout! Learn more

10-Day Weather Forecast

Advertisements
Track Severe Weather on mobile